This is the latest recevied weather packets stored in our database for station/object WC0AA-WX. If no packets are shown the sender has not sent any weather packets the latest 1 day(s).
| Time | Temp. | Humidity | Pressure | Rain* | Wind** | Luminosity | Snow |
|---|---|---|---|---|---|---|---|
| 1836274730 | 17.22° C | 93% | 1016.1 hPa | 0 mm | 4.47 m/s, 60° | - | - |
| 1836274580 | 17.22° C | 92% | 1016.1 hPa | 0 mm | 3.58 m/s, 53° | - | - |
| 1836274550 | 17.22° C | 93% | 1016.1 hPa | 0 mm | 4.47 m/s, 60° | - | - |
| 1836274426 | 17.22° C | 92% | 1016.1 hPa | 0 mm | 3.58 m/s, 63° | - | - |
| 1836274130 | 17.22° C | 92% | 1016.1 hPa | 0 mm | 3.58 m/s, 63° | - | - |
| 1836274075 | 17.22° C | 92% | 1016.1 hPa | 0 mm | 4.02 m/s, 358° | - | - |
| 1778042936 | 10° C | 52% | 1014.9 hPa | 0 mm | 0 m/s | - | - |
| 1778042336 | 10.56° C | 51% | 1015.2 hPa | 0 mm | 0 m/s | - | - |
| 1778041133 | 10.56° C | 50% | 1015 hPa | 0 mm | 0 m/s | - | - |
| 1778039330 | 11.11° C | 47% | 1015 hPa | 0 mm | 2.24 m/s, 16° | - | - |
| 1778038729 | 11.67° C | 46% | 1014.5 hPa | 0 mm | 0.89 m/s, 2° | - | - |
| 1778037527 | 12.22° C | 41% | 1014.2 hPa | 0 mm | 3.58 m/s, 292° | - | - |
| 1778036927 | 11.67° C | 43% | 1013.9 hPa | 0 mm | 3.13 m/s, 314° | - | - |
| 1778036326 | 11.67° C | 46% | 1013.9 hPa | 0 mm | 0 m/s | - | - |
| 1778035725 | 11.67° C | 45% | 1013.5 hPa | 0 mm | 0 m/s | - | - |
| 1778035124 | 11.67° C | 45% | 1013.3 hPa | 0 mm | 1.34 m/s, 180° | - | - |
| 1778029114 | 12.78° C | 48% | 1012.5 hPa | 0 mm | 0 m/s | - | - |
| 1778027912 | 12.78° C | 47% | 1012.4 hPa | 0 mm | 0 m/s | - | - |
| 1778027311 | 12.78° C | 49% | 1012.3 hPa | 0 mm | 0 m/s | - | - |
| 1778026710 | 12.78° C | 49% | 1012.1 hPa | 0 mm | 0 m/s | - | - |
| 1778025509 | 12.78° C | 49% | 1012.2 hPa | 0 mm | 2.24 m/s, 318° | - | - |
| 1778024908 | 12.78° C | 49% | 1012.3 hPa | 0 mm | 2.24 m/s, 358° | - | - |
| 1778023706 | 12.78° C | 49% | 1012.4 hPa | 0 mm | 5.36 m/s, 9° | - | - |
| 1778021904 | 13.33° C | 46% | 1012.3 hPa | 0 mm | 0.89 m/s, 351° | - | - |
| 1778021303 | 13.33° C | 45% | 1012.3 hPa | 0 mm | 0.45 m/s, 12° | - | - |
* Rain latest hour (hover to see other rain measurements)
** Current wind speed in m/s (hover to see current wind gust speed)